DAL2486 KLAX-MMPR
Flight info
| Callsign | DAL2486 |
|---|---|
| Flight time | 2h 23m |
| Altitude | 35000 |
| Route | PNDAH2 OTAYY DCT TIJ UT4 LMM UJ3 MZT J141 OBRUG OBRUG1B |
| Aircraft | A321/M-SDE3FGHIRWY/LB1 |
Departure
| Time | 2026-04-22 18:05 |
|---|---|
| Airport | Los Angeles International Airport (KLAX) |
Arrival
| Time | 2026-04-22 20:28 |
|---|---|
| Airport | Puerto Vallarta International Airport (MMPR) |
| Time | Latitude | Longitude | Altitude | Speed | Heading |
|---|---|---|---|---|---|
| 2026-04-22 17:40 | 33.94601 | -118.40806 | 93 ft | 0 kts | 110° |
| 2026-04-22 17:52 | 33.94608 | -118.40827 | 94 ft | 4 kts | 108° |
| 2026-04-22 17:52 | 33.94616 | -118.40854 | 92 ft | 4 kts | 99° |
| 2026-04-22 17:52 | 33.94613 | -118.40880 | 91 ft | 4 kts | 37° |
| 2026-04-22 17:52 | 33.94589 | -118.40891 | 92 ft | 4 kts | 3° |
| 2026-04-22 17:53 | 33.94570 | -118.40890 | 93 ft | 3 kts | 353° |
| 2026-04-22 17:53 | 33.94596 | -118.40894 | 94 ft | 4 kts | 353° |
| 2026-04-22 17:53 | 33.94620 | -118.40898 | 94 ft | 1 kts | 353° |
| 2026-04-22 17:57 | 33.94621 | -118.40898 | 94 ft | 1 kts | 353° |
| 2026-04-22 17:58 | 33.94637 | -118.40900 | 93 ft | 3 kts | 353° |
| 2026-04-22 17:58 | 33.94651 | -118.40902 | 94 ft | 1 kts | 353° |
| 2026-04-22 17:58 | 33.94662 | -118.40904 | 93 ft | 4 kts | 353° |
| 2026-04-22 17:58 | 33.94696 | -118.40909 | 94 ft | 6 kts | 353° |
| 2026-04-22 17:59 | 33.94740 | -118.40903 | 93 ft | 7 kts | 21° |
| 2026-04-22 17:59 | 33.94793 | -118.40885 | 94 ft | 9 kts | 11° |
| 2026-04-22 17:59 | 33.94836 | -118.40837 | 95 ft | 9 kts | 68° |
| 2026-04-22 17:59 | 33.94848 | -118.40754 | 98 ft | 11 kts | 83° |
| 2026-04-22 18:00 | 33.94855 | -118.40687 | 94 ft | 13 kts | 81° |
| 2026-04-22 18:00 | 33.94873 | -118.40527 | 96 ft | 16 kts | 83° |
| 2026-04-22 18:00 | 33.94886 | -118.40381 | 94 ft | 19 kts | 83° |
| 2026-04-22 18:00 | 33.94899 | -118.40255 | 94 ft | 12 kts | 83° |
| 2026-04-22 18:01 | 33.94909 | -118.40162 | 95 ft | 11 kts | 83° |
| 2026-04-22 18:01 | 33.94917 | -118.40078 | 102 ft | 10 kts | 83° |
| 2026-04-22 18:01 | 33.94924 | -118.40001 | 93 ft | 9 kts | 83° |
| 2026-04-22 18:01 | 33.94940 | -118.39942 | 93 ft | 4 kts | 54° |
| 2026-04-22 18:02 | 33.94942 | -118.39939 | 93 ft | 0 kts | 51° |
| 2026-04-22 18:03 | 33.94951 | -118.39929 | 94 ft | 4 kts | 41° |
| 2026-04-22 18:03 | 33.94981 | -118.39914 | 94 ft | 5 kts | 10° |
| 2026-04-22 18:03 | 33.95017 | -118.39916 | 94 ft | 6 kts | 351° |
| 2026-04-22 18:03 | 33.95039 | -118.39970 | 95 ft | 9 kts | 271° |
| 2026-04-22 18:04 | 33.95028 | -118.40081 | 95 ft | 25 kts | 262° |
| 2026-04-22 18:04 | 33.94977 | -118.40578 | 100 ft | 92 kts | 263° |
| 2026-04-22 18:04 | 33.94875 | -118.41568 | 98 ft | 143 kts | 263° |
| 2026-04-22 18:04 | 33.94744 | -118.42906 | 248 ft | 170 kts | 263° |
| 2026-04-22 18:05 | 33.94608 | -118.44309 | 905 ft | 169 kts | 262° |
| 2026-04-22 18:05 | 33.94470 | -118.45708 | 1566 ft | 168 kts | 263° |
| 2026-04-22 18:05 | 33.94350 | -118.47131 | 2080 ft | 177 kts | 265° |
| 2026-04-22 18:05 | 33.94283 | -118.48701 | 2232 ft | 198 kts | 266° |
| 2026-04-22 18:06 | 33.94231 | -118.50426 | 2373 ft | 219 kts | 268° |
| 2026-04-22 18:06 | 33.94132 | -118.52346 | 2664 ft | 236 kts | 264° |
| 2026-04-22 18:06 | 33.93977 | -118.54395 | 3133 ft | 252 kts | 264° |
| 2026-04-22 18:06 | 33.93804 | -118.56515 | 3871 ft | 257 kts | 265° |
| 2026-04-22 18:07 | 33.93688 | -118.57939 | 4409 ft | 258 kts | 265° |
| 2026-04-22 18:07 | 33.93414 | -118.60830 | 5499 ft | 261 kts | 257° |
| 2026-04-22 18:07 | 33.92584 | -118.62749 | 6215 ft | 268 kts | 229° |
| 2026-04-22 18:07 | 33.91002 | -118.63977 | 6922 ft | 279 kts | 199° |
| 2026-04-22 18:08 | 33.89037 | -118.64152 | 7598 ft | 288 kts | 180° |
| 2026-04-22 18:08 | 33.87017 | -118.64004 | 8329 ft | 291 kts | 180° |
| 2026-04-22 18:08 | 33.85011 | -118.63730 | 9013 ft | 297 kts | 171° |
| 2026-04-22 18:08 | 33.83042 | -118.62863 | 9694 ft | 306 kts | 155° |
| 2026-04-22 18:09 | 33.81229 | -118.61451 | 10278 ft | 316 kts | 149° |
| 2026-04-22 18:09 | 33.79356 | -118.59913 | 10403 ft | 339 kts | 149° |
| 2026-04-22 18:09 | 33.78348 | -118.59089 | 10448 ft | 350 kts | 149° |
| 2026-04-22 18:10 | 33.76285 | -118.57410 | 10802 ft | 362 kts | 149° |
| 2026-04-22 18:10 | 33.74179 | -118.55700 | 11358 ft | 367 kts | 149° |
| 2026-04-22 18:10 | 33.72057 | -118.53962 | 11954 ft | 372 kts | 147° |
| 2026-04-22 18:10 | 33.70104 | -118.51856 | 12545 ft | 381 kts | 135° |
| 2026-04-22 18:11 | 33.68520 | -118.49272 | 13124 ft | 389 kts | 122° |
| 2026-04-22 18:11 | 33.67259 | -118.46373 | 13708 ft | 394 kts | 119° |
| 2026-04-22 18:11 | 33.66019 | -118.43471 | 14250 ft | 398 kts | 119° |
| 2026-04-22 18:11 | 33.64744 | -118.40494 | 14772 ft | 402 kts | 120° |
| 2026-04-22 18:12 | 33.63455 | -118.37489 | 15325 ft | 405 kts | 120° |
| 2026-04-22 18:12 | 33.62159 | -118.34474 | 15874 ft | 408 kts | 120° |
| 2026-04-22 18:12 | 33.61291 | -118.32462 | 16241 ft | 410 kts | 120° |
| 2026-04-22 18:12 | 33.59519 | -118.28366 | 16957 ft | 415 kts | 121° |
| 2026-04-22 18:13 | 33.58185 | -118.25285 | 17483 ft | 418 kts | 121° |
| 2026-04-22 18:13 | 33.56854 | -118.22218 | 17979 ft | 421 kts | 121° |
| 2026-04-22 18:13 | 33.55498 | -118.19093 | 18517 ft | 423 kts | 121° |
| 2026-04-22 18:13 | 33.54133 | -118.15946 | 18968 ft | 426 kts | 121° |
| 2026-04-22 18:14 | 33.52762 | -118.12777 | 19423 ft | 429 kts | 121° |
| 2026-04-22 18:14 | 33.51387 | -118.09588 | 19840 ft | 431 kts | 121° |
| 2026-04-22 18:14 | 33.50008 | -118.06382 | 20280 ft | 433 kts | 121° |
| 2026-04-22 18:14 | 33.48642 | -118.03205 | 20700 ft | 436 kts | 122° |
| 2026-04-22 18:15 | 33.47107 | -118.00078 | 21106 ft | 434 kts | 131° |
| 2026-04-22 18:15 | 33.45185 | -117.97314 | 21519 ft | 429 kts | 141° |
| 2026-04-22 18:15 | 33.42980 | -117.94922 | 21941 ft | 428 kts | 145° |
| 2026-04-22 18:15 | 33.41493 | -117.93357 | 22252 ft | 430 kts | 145° |
| 2026-04-22 18:16 | 33.38484 | -117.90183 | 22906 ft | 432 kts | 144° |
| 2026-04-22 18:16 | 33.36990 | -117.88600 | 23206 ft | 434 kts | 144° |
| 2026-04-22 18:16 | 33.34722 | -117.86193 | 23623 ft | 436 kts | 144° |
| 2026-04-22 18:16 | 33.31698 | -117.82986 | 24092 ft | 439 kts | 144° |
| 2026-04-22 18:17 | 33.30176 | -117.81372 | 24303 ft | 441 kts | 145° |
| 2026-04-22 18:17 | 33.27872 | -117.78932 | 24624 ft | 443 kts | 145° |
| 2026-04-22 18:17 | 33.25557 | -117.76480 | 24941 ft | 445 kts | 145° |
| 2026-04-22 18:17 | 33.23230 | -117.74016 | 25262 ft | 448 kts | 145° |
| 2026-04-22 18:18 | 33.20888 | -117.71542 | 25558 ft | 450 kts | 145° |
| 2026-04-22 18:18 | 33.18529 | -117.69055 | 25856 ft | 453 kts | 145° |
| 2026-04-22 18:18 | 33.16158 | -117.66556 | 26159 ft | 455 kts | 145° |
| 2026-04-22 18:18 | 33.13826 | -117.64056 | 26454 ft | 459 kts | 144° |
| 2026-04-22 18:19 | 33.11473 | -117.61460 | 26750 ft | 462 kts | 143° |
| 2026-04-22 18:19 | 33.09124 | -117.58818 | 27039 ft | 464 kts | 143° |
| 2026-04-22 18:19 | 33.06772 | -117.56160 | 27339 ft | 467 kts | 143° |
| 2026-04-22 18:19 | 33.04399 | -117.53487 | 27616 ft | 469 kts | 143° |
| 2026-04-22 18:20 | 33.02013 | -117.50809 | 27847 ft | 472 kts | 143° |
| 2026-04-22 18:20 | 32.99602 | -117.48120 | 28101 ft | 475 kts | 143° |
| 2026-04-22 18:20 | 32.97171 | -117.45420 | 28395 ft | 478 kts | 144° |
| 2026-04-22 18:20 | 32.94760 | -117.42756 | 28658 ft | 480 kts | 144° |
| 2026-04-22 18:21 | 32.92299 | -117.40046 | 28916 ft | 482 kts | 144° |
| 2026-04-22 18:21 | 32.89819 | -117.37317 | 29234 ft | 485 kts | 144° |
| 2026-04-22 18:21 | 32.87364 | -117.34612 | 29506 ft | 487 kts | 144° |
| 2026-04-22 18:21 | 32.84870 | -117.31863 | 29776 ft | 489 kts | 144° |
| 2026-04-22 18:22 | 32.82359 | -117.29090 | 30020 ft | 492 kts | 144° |
| 2026-04-22 18:22 | 32.79837 | -117.26303 | 30277 ft | 494 kts | 144° |
| 2026-04-22 18:22 | 32.77342 | -117.23543 | 30459 ft | 496 kts | 144° |
| 2026-04-22 18:22 | 32.74805 | -117.20746 | 30669 ft | 499 kts | 144° |
| 2026-04-22 18:23 | 32.72249 | -117.17935 | 30874 ft | 501 kts | 144° |
| 2026-04-22 18:23 | 32.69690 | -117.15121 | 31164 ft | 500 kts | 145° |
| 2026-04-22 18:23 | 32.67129 | -117.12303 | 31475 ft | 501 kts | 144° |
| 2026-04-22 18:24 | 32.62326 | -117.06150 | 31821 ft | 512 kts | 140° |
| 2026-04-22 18:24 | 32.59955 | -117.03039 | 32025 ft | 514 kts | 140° |
| 2026-04-22 18:24 | 32.55146 | -116.96721 | 32519 ft | 516 kts | 140° |
| 2026-04-22 18:25 | 32.52731 | -116.93559 | 32761 ft | 517 kts | 140° |
| 2026-04-22 18:25 | 32.50291 | -116.90415 | 32996 ft | 518 kts | 141° |
| 2026-04-22 18:25 | 32.47827 | -116.87276 | 33230 ft | 518 kts | 141° |
| 2026-04-22 18:26 | 32.42910 | -116.81064 | 33652 ft | 521 kts | 141° |
| 2026-04-22 18:26 | 32.40426 | -116.77932 | 33883 ft | 522 kts | 142° |
| 2026-04-22 18:26 | 32.37943 | -116.74791 | 34131 ft | 523 kts | 142° |
| 2026-04-22 18:26 | 32.35446 | -116.71623 | 34337 ft | 524 kts | 141° |
| 2026-04-22 18:27 | 32.32988 | -116.68494 | 34553 ft | 524 kts | 141° |
| 2026-04-22 18:27 | 32.30509 | -116.65340 | 34769 ft | 524 kts | 141° |
| 2026-04-22 18:27 | 32.28022 | -116.62187 | 34995 ft | 523 kts | 141° |
| 2026-04-22 18:27 | 32.25532 | -116.59036 | 35164 ft | 523 kts | 141° |
| 2026-04-22 18:28 | 32.20621 | -116.52833 | 35197 ft | 518 kts | 142° |
| 2026-04-22 18:28 | 32.15695 | -116.46614 | 35195 ft | 516 kts | 141° |
| 2026-04-22 18:29 | 32.10800 | -116.40462 | 35204 ft | 516 kts | 142° |
| 2026-04-22 18:29 | 32.05877 | -116.34283 | 35204 ft | 515 kts | 141° |
| 2026-04-22 18:30 | 31.98543 | -116.25075 | 35191 ft | 515 kts | 141° |
| 2026-04-22 18:31 | 31.93623 | -116.18923 | 35184 ft | 515 kts | 141° |
| 2026-04-22 18:31 | 31.88701 | -116.12767 | 35150 ft | 516 kts | 141° |
| 2026-04-22 18:32 | 31.83775 | -116.06615 | 35169 ft | 515 kts | 141° |
| 2026-04-22 18:32 | 31.78872 | -116.00520 | 35170 ft | 515 kts | 141° |
| 2026-04-22 18:33 | 31.73939 | -115.94393 | 35177 ft | 515 kts | 141° |
| 2026-04-22 18:33 | 31.69008 | -115.88273 | 35144 ft | 515 kts | 141° |
| 2026-04-22 18:34 | 31.64083 | -115.82175 | 35165 ft | 514 kts | 141° |
| 2026-04-22 18:34 | 31.59181 | -115.76126 | 35163 ft | 513 kts | 141° |
| 2026-04-22 18:35 | 31.54247 | -115.70029 | 35167 ft | 513 kts | 141° |
| 2026-04-22 18:35 | 31.49333 | -115.63967 | 35132 ft | 512 kts | 141° |
| 2026-04-22 18:36 | 31.44449 | -115.57952 | 35146 ft | 512 kts | 141° |
| 2026-04-22 18:36 | 31.39538 | -115.51914 | 35156 ft | 511 kts | 141° |
| 2026-04-22 18:37 | 31.34620 | -115.45891 | 35155 ft | 511 kts | 141° |
| 2026-04-22 18:37 | 31.29704 | -115.39882 | 35109 ft | 509 kts | 141° |
| 2026-04-22 18:38 | 31.24834 | -115.33923 | 35098 ft | 509 kts | 141° |
| 2026-04-22 18:38 | 31.19923 | -115.27927 | 35117 ft | 509 kts | 141° |
| 2026-04-22 18:39 | 31.12593 | -115.19008 | 35112 ft | 509 kts | 141° |
| 2026-04-22 18:39 | 31.07682 | -115.13037 | 35083 ft | 509 kts | 141° |
| 2026-04-22 18:40 | 31.02775 | -115.07078 | 35089 ft | 509 kts | 141° |
| 2026-04-22 18:40 | 30.97857 | -115.01122 | 35105 ft | 509 kts | 141° |
| 2026-04-22 18:41 | 30.92935 | -114.95183 | 35092 ft | 509 kts | 141° |
| 2026-04-22 18:41 | 30.88046 | -114.89279 | 35083 ft | 508 kts | 141° |
| 2026-04-22 18:42 | 30.83128 | -114.83336 | 35090 ft | 509 kts | 141° |
| 2026-04-22 18:42 | 30.78235 | -114.77438 | 35092 ft | 509 kts | 141° |
| 2026-04-22 18:43 | 30.73315 | -114.71515 | 35094 ft | 509 kts | 141° |
| 2026-04-22 18:43 | 30.68384 | -114.65593 | 35070 ft | 509 kts | 141° |
| 2026-04-22 18:44 | 30.63474 | -114.59706 | 35077 ft | 509 kts | 141° |
| 2026-04-22 18:44 | 30.58522 | -114.53781 | 35082 ft | 510 kts | 141° |
| 2026-04-22 18:45 | 30.53601 | -114.47904 | 35084 ft | 510 kts | 141° |
| 2026-04-22 18:45 | 30.48647 | -114.41992 | 35050 ft | 510 kts | 141° |
| 2026-04-22 18:46 | 30.43720 | -114.36125 | 35072 ft | 510 kts | 141° |
| 2026-04-22 18:46 | 30.38756 | -114.30222 | 35076 ft | 511 kts | 141° |
| 2026-04-22 18:47 | 30.33781 | -114.24310 | 35086 ft | 511 kts | 141° |
| 2026-04-22 18:47 | 30.28844 | -114.18459 | 35093 ft | 511 kts | 141° |
| 2026-04-22 18:48 | 30.23877 | -114.12578 | 35073 ft | 511 kts | 141° |
| 2026-04-22 18:48 | 30.18901 | -114.06700 | 35089 ft | 510 kts | 141° |
| 2026-04-22 18:49 | 30.13962 | -114.00858 | 35091 ft | 511 kts | 141° |
| 2026-04-22 18:49 | 30.08981 | -113.94977 | 35090 ft | 511 kts | 141° |
| 2026-04-22 18:50 | 30.03993 | -113.89109 | 35074 ft | 511 kts | 141° |
| 2026-04-22 18:50 | 29.99008 | -113.83259 | 35087 ft | 511 kts | 141° |
| 2026-04-22 18:51 | 29.94042 | -113.77433 | 35098 ft | 511 kts | 141° |
| 2026-04-22 18:51 | 29.89046 | -113.71579 | 35095 ft | 511 kts | 141° |
| 2026-04-22 18:52 | 29.84074 | -113.65771 | 35075 ft | 511 kts | 141° |
| 2026-04-22 18:52 | 29.79071 | -113.59942 | 35090 ft | 511 kts | 141° |
| 2026-04-22 18:53 | 29.74069 | -113.54107 | 35093 ft | 511 kts | 140° |
| 2026-04-22 18:53 | 29.69070 | -113.48286 | 35085 ft | 511 kts | 141° |
| 2026-04-22 18:54 | 29.64080 | -113.42476 | 35109 ft | 510 kts | 140° |
| 2026-04-22 18:54 | 29.59116 | -113.36708 | 35084 ft | 510 kts | 140° |
| 2026-04-22 18:55 | 29.54121 | -113.30914 | 35088 ft | 510 kts | 140° |
| 2026-04-22 18:55 | 29.49126 | -113.25132 | 35091 ft | 510 kts | 140° |
| 2026-04-22 18:56 | 29.44135 | -113.19372 | 35087 ft | 510 kts | 140° |
| 2026-04-22 18:56 | 29.39129 | -113.13597 | 35080 ft | 509 kts | 140° |
| 2026-04-22 18:57 | 29.34132 | -113.07824 | 35091 ft | 509 kts | 140° |
| 2026-04-22 18:57 | 29.29156 | -113.02106 | 35082 ft | 509 kts | 140° |
| 2026-04-22 18:58 | 29.24132 | -112.96355 | 35078 ft | 509 kts | 140° |
| 2026-04-22 18:58 | 29.19119 | -112.90606 | 35054 ft | 509 kts | 140° |
| 2026-04-22 18:59 | 29.14151 | -112.84897 | 35074 ft | 508 kts | 140° |
| 2026-04-22 18:59 | 29.09152 | -112.79179 | 35082 ft | 508 kts | 140° |
| 2026-04-22 19:00 | 29.04134 | -112.73451 | 35077 ft | 508 kts | 140° |
| 2026-04-22 19:00 | 28.99145 | -112.67766 | 35071 ft | 509 kts | 140° |
| 2026-04-22 19:01 | 28.94121 | -112.62036 | 35064 ft | 509 kts | 140° |
| 2026-04-22 19:01 | 28.89130 | -112.56360 | 35085 ft | 509 kts | 140° |
| 2026-04-22 19:02 | 28.84112 | -112.50673 | 35092 ft | 508 kts | 140° |
| 2026-04-22 19:02 | 28.79089 | -112.44976 | 35096 ft | 507 kts | 140° |
| 2026-04-22 19:03 | 28.74108 | -112.39329 | 35076 ft | 508 kts | 140° |
| 2026-04-22 19:03 | 28.69086 | -112.33646 | 35069 ft | 508 kts | 140° |
| 2026-04-22 19:04 | 28.64071 | -112.27987 | 35064 ft | 509 kts | 140° |
| 2026-04-22 19:04 | 28.59023 | -112.22299 | 35068 ft | 509 kts | 140° |
| 2026-04-22 19:05 | 28.54009 | -112.16652 | 35070 ft | 509 kts | 140° |
| 2026-04-22 19:05 | 28.48972 | -112.10976 | 35066 ft | 509 kts | 140° |
| 2026-04-22 19:06 | 28.43929 | -112.05310 | 35069 ft | 509 kts | 140° |
| 2026-04-22 19:07 | 28.36398 | -111.96878 | 35075 ft | 508 kts | 140° |
| 2026-04-22 19:07 | 28.31355 | -111.91232 | 35075 ft | 508 kts | 140° |
| 2026-04-22 19:08 | 28.27168 | -111.86555 | 35056 ft | 508 kts | 140° |
| 2026-04-22 19:08 | 28.22130 | -111.80939 | 35069 ft | 507 kts | 140° |
| 2026-04-22 19:09 | 28.17097 | -111.75331 | 35065 ft | 507 kts | 140° |
| 2026-04-22 19:09 | 28.12056 | -111.69722 | 35068 ft | 507 kts | 140° |
| 2026-04-22 19:10 | 28.07053 | -111.64156 | 35063 ft | 507 kts | 140° |
| 2026-04-22 19:10 | 28.02013 | -111.58564 | 35059 ft | 506 kts | 140° |
| 2026-04-22 19:11 | 27.96977 | -111.52988 | 35066 ft | 506 kts | 140° |
| 2026-04-22 19:11 | 27.91976 | -111.47450 | 35066 ft | 506 kts | 140° |
| 2026-04-22 19:12 | 27.86942 | -111.41876 | 35069 ft | 505 kts | 140° |
| 2026-04-22 19:12 | 27.81909 | -111.36327 | 35045 ft | 505 kts | 140° |
| 2026-04-22 19:13 | 27.76876 | -111.30778 | 35064 ft | 505 kts | 140° |
| 2026-04-22 19:13 | 27.71869 | -111.25267 | 35080 ft | 504 kts | 140° |
| 2026-04-22 19:14 | 27.66856 | -111.19771 | 35080 ft | 504 kts | 140° |
| 2026-04-22 19:14 | 27.61823 | -111.14250 | 35082 ft | 504 kts | 140° |
| 2026-04-22 19:15 | 27.56794 | -111.08724 | 35055 ft | 504 kts | 140° |
| 2026-04-22 19:15 | 27.51764 | -111.03213 | 35071 ft | 504 kts | 140° |
| 2026-04-22 19:16 | 27.46752 | -110.97739 | 35068 ft | 504 kts | 140° |
| 2026-04-22 19:16 | 27.41721 | -110.92243 | 35064 ft | 503 kts | 140° |
| 2026-04-22 19:17 | 27.36690 | -110.86748 | 35070 ft | 503 kts | 140° |
| 2026-04-22 19:17 | 27.31654 | -110.81274 | 35060 ft | 503 kts | 140° |
| 2026-04-22 19:18 | 27.26620 | -110.75810 | 35073 ft | 503 kts | 140° |
| 2026-04-22 19:18 | 27.21592 | -110.70364 | 35061 ft | 503 kts | 140° |
| 2026-04-22 19:19 | 27.16548 | -110.64883 | 35060 ft | 503 kts | 140° |
| 2026-04-22 19:19 | 27.11526 | -110.59434 | 35072 ft | 503 kts | 140° |
| 2026-04-22 19:20 | 27.06487 | -110.53978 | 35058 ft | 503 kts | 140° |
| 2026-04-22 19:20 | 27.01467 | -110.48556 | 35069 ft | 502 kts | 140° |
| 2026-04-22 19:21 | 26.96419 | -110.43118 | 35074 ft | 503 kts | 140° |
| 2026-04-22 19:21 | 26.91395 | -110.37705 | 35070 ft | 503 kts | 140° |
| 2026-04-22 19:22 | 26.86333 | -110.32263 | 35069 ft | 503 kts | 140° |
| 2026-04-22 19:22 | 26.81286 | -110.26837 | 35070 ft | 503 kts | 140° |
| 2026-04-22 19:23 | 26.76269 | -110.21441 | 35077 ft | 502 kts | 140° |
| 2026-04-22 19:23 | 26.71231 | -110.16033 | 35079 ft | 501 kts | 140° |
| 2026-04-22 19:24 | 26.66183 | -110.10636 | 35070 ft | 502 kts | 140° |
| 2026-04-22 19:24 | 26.61130 | -110.05244 | 35065 ft | 502 kts | 140° |
| 2026-04-22 19:25 | 26.56093 | -109.99868 | 35061 ft | 502 kts | 140° |
| 2026-04-22 19:25 | 26.51059 | -109.94492 | 35069 ft | 501 kts | 140° |
| 2026-04-22 19:26 | 26.45993 | -109.89092 | 35070 ft | 501 kts | 140° |
| 2026-04-22 19:26 | 26.40944 | -109.83721 | 35073 ft | 501 kts | 140° |
| 2026-04-22 19:27 | 26.35925 | -109.78391 | 35072 ft | 501 kts | 140° |
| 2026-04-22 19:27 | 26.30851 | -109.73017 | 35063 ft | 502 kts | 140° |
| 2026-04-22 19:28 | 26.25817 | -109.67687 | 35067 ft | 502 kts | 140° |
| 2026-04-22 19:28 | 26.20748 | -109.62320 | 35066 ft | 502 kts | 140° |
| 2026-04-22 19:29 | 26.15678 | -109.56946 | 35058 ft | 503 kts | 140° |
| 2026-04-22 19:29 | 26.10633 | -109.51617 | 35043 ft | 502 kts | 140° |
| 2026-04-22 19:30 | 26.06411 | -109.47174 | 35063 ft | 501 kts | 140° |
| 2026-04-22 19:30 | 26.00473 | -109.40931 | 35062 ft | 501 kts | 140° |
| 2026-04-22 19:31 | 25.95429 | -109.35622 | 35059 ft | 502 kts | 140° |
| 2026-04-22 19:31 | 25.90351 | -109.30287 | 35064 ft | 502 kts | 140° |
| 2026-04-22 19:32 | 25.85257 | -109.24952 | 35068 ft | 502 kts | 140° |
| 2026-04-22 19:32 | 25.80211 | -109.19659 | 35091 ft | 501 kts | 140° |
| 2026-04-22 19:33 | 25.75137 | -109.14348 | 35101 ft | 500 kts | 140° |
| 2026-04-22 19:33 | 25.70073 | -109.09050 | 35084 ft | 500 kts | 140° |
| 2026-04-22 19:34 | 25.65048 | -109.03679 | 35086 ft | 502 kts | 137° |
| 2026-04-22 19:34 | 25.60225 | -108.98121 | 35072 ft | 503 kts | 136° |
| 2026-04-22 19:35 | 25.55422 | -108.92484 | 35079 ft | 503 kts | 136° |
| 2026-04-22 19:35 | 25.51372 | -108.87811 | 35071 ft | 501 kts | 137° |
| 2026-04-22 19:36 | 25.45721 | -108.81383 | 35058 ft | 500 kts | 137° |
| 2026-04-22 19:36 | 25.40858 | -108.75879 | 35045 ft | 500 kts | 137° |
| 2026-04-22 19:37 | 25.36019 | -108.70390 | 35034 ft | 501 kts | 137° |
| 2026-04-22 19:37 | 25.31151 | -108.64857 | 35025 ft | 501 kts | 136° |
| 2026-04-22 19:38 | 25.26275 | -108.59320 | 35026 ft | 501 kts | 137° |
| 2026-04-22 19:38 | 25.21429 | -108.53835 | 35038 ft | 501 kts | 137° |
| 2026-04-22 19:39 | 25.16539 | -108.48325 | 35048 ft | 501 kts | 137° |
| 2026-04-22 19:39 | 25.11678 | -108.42840 | 35053 ft | 502 kts | 137° |
| 2026-04-22 19:40 | 25.06792 | -108.37323 | 35030 ft | 502 kts | 136° |
| 2026-04-22 19:40 | 25.01899 | -108.31803 | 35040 ft | 502 kts | 136° |
| 2026-04-22 19:41 | 24.97000 | -108.26291 | 35045 ft | 502 kts | 136° |
| 2026-04-22 19:41 | 24.92128 | -108.20814 | 35048 ft | 502 kts | 136° |
| 2026-04-22 19:42 | 24.87235 | -108.15313 | 35053 ft | 502 kts | 136° |
| 2026-04-22 19:42 | 24.82334 | -108.09819 | 35040 ft | 502 kts | 136° |
| 2026-04-22 19:43 | 24.75007 | -108.01624 | 35056 ft | 501 kts | 136° |
| 2026-04-22 19:43 | 24.70122 | -107.96153 | 35056 ft | 500 kts | 136° |
| 2026-04-22 19:44 | 24.65241 | -107.90685 | 35055 ft | 500 kts | 136° |
| 2026-04-22 19:44 | 24.60370 | -107.85264 | 35050 ft | 500 kts | 137° |
| 2026-04-22 19:45 | 24.55472 | -107.79823 | 35042 ft | 500 kts | 136° |
| 2026-04-22 19:45 | 24.50608 | -107.74418 | 35066 ft | 499 kts | 136° |
| 2026-04-22 19:46 | 24.45724 | -107.68976 | 35052 ft | 499 kts | 136° |
| 2026-04-22 19:46 | 24.40828 | -107.63534 | 35049 ft | 499 kts | 136° |
| 2026-04-22 19:47 | 24.35968 | -107.58145 | 35051 ft | 499 kts | 136° |
| 2026-04-22 19:47 | 24.31079 | -107.52734 | 35051 ft | 499 kts | 136° |
| 2026-04-22 19:48 | 24.26211 | -107.47351 | 35045 ft | 498 kts | 136° |
| 2026-04-22 19:48 | 24.21327 | -107.41954 | 35048 ft | 497 kts | 136° |
| 2026-04-22 19:49 | 24.16452 | -107.36566 | 35043 ft | 498 kts | 136° |
| 2026-04-22 19:49 | 24.11565 | -107.31172 | 35046 ft | 498 kts | 136° |
| 2026-04-22 19:50 | 24.06668 | -107.25776 | 35035 ft | 499 kts | 136° |
| 2026-04-22 19:50 | 24.01797 | -107.20423 | 35036 ft | 499 kts | 136° |
| 2026-04-22 19:51 | 23.96888 | -107.15037 | 35048 ft | 498 kts | 136° |
| 2026-04-22 19:51 | 23.92026 | -107.09703 | 35050 ft | 497 kts | 136° |
| 2026-04-22 19:52 | 23.87140 | -107.04344 | 35056 ft | 497 kts | 136° |
| 2026-04-22 19:52 | 23.82239 | -106.98976 | 35040 ft | 498 kts | 136° |
| 2026-04-22 19:53 | 23.77344 | -106.93616 | 35033 ft | 498 kts | 136° |
| 2026-04-22 19:53 | 23.72477 | -106.88290 | 35040 ft | 498 kts | 136° |
| 2026-04-22 19:54 | 23.67556 | -106.82931 | 35036 ft | 498 kts | 136° |
| 2026-04-22 19:54 | 23.62637 | -106.77580 | 35044 ft | 499 kts | 136° |
| 2026-04-22 19:55 | 23.57755 | -106.72261 | 35044 ft | 499 kts | 136° |
| 2026-04-22 19:55 | 23.52839 | -106.66907 | 35041 ft | 499 kts | 136° |
| 2026-04-22 19:56 | 23.47911 | -106.61544 | 35020 ft | 500 kts | 136° |
| 2026-04-22 19:56 | 23.43008 | -106.56231 | 35036 ft | 499 kts | 136° |
| 2026-04-22 19:57 | 23.38901 | -106.51783 | 35045 ft | 499 kts | 136° |
| 2026-04-22 19:57 | 23.33963 | -106.46437 | 35045 ft | 499 kts | 136° |
| 2026-04-22 19:58 | 23.29061 | -106.41138 | 35045 ft | 499 kts | 136° |
| 2026-04-22 19:58 | 23.24135 | -106.35822 | 35043 ft | 499 kts | 136° |
| 2026-04-22 20:00 | 23.04165 | -106.22050 | 35062 ft | 488 kts | 162° |
| 2026-04-22 20:01 | 22.97826 | -106.19352 | 35054 ft | 488 kts | 162° |
| 2026-04-22 20:01 | 22.91492 | -106.16654 | 35044 ft | 488 kts | 162° |
| 2026-04-22 20:02 | 22.85143 | -106.13960 | 35037 ft | 488 kts | 162° |
| 2026-04-22 20:02 | 22.78852 | -106.11301 | 35035 ft | 487 kts | 162° |
| 2026-04-22 20:03 | 22.72522 | -106.08624 | 35036 ft | 487 kts | 162° |
| 2026-04-22 20:03 | 22.66233 | -106.05964 | 34900 ft | 488 kts | 162° |
| 2026-04-22 20:03 | 22.63071 | -106.04626 | 34661 ft | 487 kts | 162° |
| 2026-04-22 20:04 | 22.59911 | -106.03293 | 34420 ft | 487 kts | 161° |
| 2026-04-22 20:04 | 22.56752 | -106.01961 | 34186 ft | 487 kts | 161° |
| 2026-04-22 20:04 | 22.53587 | -106.00628 | 33941 ft | 487 kts | 161° |
| 2026-04-22 20:04 | 22.50424 | -105.99296 | 33691 ft | 488 kts | 161° |
| 2026-04-22 20:05 | 22.47282 | -105.97974 | 33439 ft | 490 kts | 161° |
| 2026-04-22 20:05 | 22.44105 | -105.96637 | 33175 ft | 490 kts | 161° |
| 2026-04-22 20:05 | 22.40917 | -105.95294 | 32913 ft | 491 kts | 161° |
| 2026-04-22 20:05 | 22.37739 | -105.93956 | 32667 ft | 490 kts | 161° |
| 2026-04-22 20:06 | 22.34570 | -105.92620 | 32416 ft | 488 kts | 161° |
| 2026-04-22 20:06 | 22.31411 | -105.91290 | 32156 ft | 486 kts | 161° |
| 2026-04-22 20:06 | 22.28262 | -105.89968 | 31891 ft | 482 kts | 161° |
| 2026-04-22 20:06 | 22.25131 | -105.88653 | 31331 ft | 481 kts | 161° |
| 2026-04-22 20:07 | 22.22046 | -105.87360 | 30741 ft | 480 kts | 161° |
| 2026-04-22 20:07 | 22.18935 | -105.86056 | 30153 ft | 479 kts | 161° |
| 2026-04-22 20:07 | 22.15821 | -105.84751 | 29490 ft | 477 kts | 161° |
| 2026-04-22 20:07 | 22.12731 | -105.83454 | 28923 ft | 474 kts | 161° |
| 2026-04-22 20:08 | 22.09707 | -105.82188 | 28376 ft | 470 kts | 161° |
| 2026-04-22 20:08 | 22.06667 | -105.80914 | 27841 ft | 466 kts | 161° |
| 2026-04-22 20:08 | 22.03657 | -105.79652 | 27315 ft | 462 kts | 161° |
| 2026-04-22 20:08 | 22.00680 | -105.78403 | 26791 ft | 455 kts | 161° |
| 2026-04-22 20:09 | 21.97752 | -105.77173 | 26280 ft | 446 kts | 161° |
| 2026-04-22 20:09 | 21.94911 | -105.75983 | 25798 ft | 438 kts | 161° |
| 2026-04-22 20:09 | 21.92094 | -105.74805 | 25335 ft | 430 kts | 161° |
| 2026-04-22 20:09 | 21.89329 | -105.73650 | 24876 ft | 422 kts | 161° |
| 2026-04-22 20:10 | 21.86613 | -105.72516 | 24430 ft | 415 kts | 161° |
| 2026-04-22 20:10 | 21.83944 | -105.71406 | 23985 ft | 408 kts | 161° |
| 2026-04-22 20:10 | 21.81317 | -105.70312 | 23526 ft | 401 kts | 161° |
| 2026-04-22 20:10 | 21.78739 | -105.69201 | 23029 ft | 395 kts | 156° |
| 2026-04-22 20:11 | 21.76352 | -105.67764 | 22565 ft | 395 kts | 150° |
| 2026-04-22 20:11 | 21.74020 | -105.66220 | 22077 ft | 399 kts | 150° |
| 2026-04-22 20:11 | 21.71651 | -105.64652 | 21583 ft | 398 kts | 150° |
| 2026-04-22 20:11 | 21.70086 | -105.63617 | 21244 ft | 397 kts | 150° |
| 2026-04-22 20:12 | 21.69418 | -105.63173 | 21118 ft | 396 kts | 150° |
| 2026-04-22 20:12 | 21.67078 | -105.61616 | 20622 ft | 394 kts | 150° |
| 2026-04-22 20:12 | 21.64771 | -105.60096 | 20148 ft | 392 kts | 150° |
| 2026-04-22 20:12 | 21.62449 | -105.58575 | 19667 ft | 390 kts | 151° |
| 2026-04-22 20:13 | 21.60132 | -105.57057 | 19187 ft | 388 kts | 151° |
| 2026-04-22 20:13 | 21.57852 | -105.55561 | 18719 ft | 381 kts | 151° |
| 2026-04-22 20:13 | 21.55610 | -105.54088 | 18250 ft | 375 kts | 151° |
| 2026-04-22 20:13 | 21.53391 | -105.52630 | 17687 ft | 372 kts | 151° |
| 2026-04-22 20:14 | 21.51207 | -105.51193 | 17218 ft | 368 kts | 150° |
| 2026-04-22 20:14 | 21.49040 | -105.49771 | 16768 ft | 364 kts | 150° |
| 2026-04-22 20:14 | 21.46876 | -105.48350 | 16326 ft | 361 kts | 150° |
| 2026-04-22 20:14 | 21.44756 | -105.46959 | 15884 ft | 359 kts | 150° |
| 2026-04-22 20:15 | 21.42619 | -105.45558 | 15446 ft | 358 kts | 150° |
| 2026-04-22 20:15 | 21.40481 | -105.44157 | 15005 ft | 356 kts | 150° |
| 2026-04-22 20:15 | 21.38381 | -105.42779 | 14564 ft | 355 kts | 149° |
| 2026-04-22 20:15 | 21.36273 | -105.41394 | 14133 ft | 354 kts | 150° |
| 2026-04-22 20:16 | 21.34171 | -105.40013 | 13687 ft | 353 kts | 150° |
| 2026-04-22 20:16 | 21.32096 | -105.38654 | 13228 ft | 351 kts | 149° |
| 2026-04-22 20:16 | 21.30013 | -105.37292 | 12795 ft | 349 kts | 149° |
| 2026-04-22 20:16 | 21.27941 | -105.35934 | 12280 ft | 346 kts | 149° |
| 2026-04-22 20:17 | 21.25934 | -105.34617 | 11807 ft | 338 kts | 149° |
| 2026-04-22 20:17 | 21.23940 | -105.33312 | 11423 ft | 328 kts | 149° |
| 2026-04-22 20:17 | 21.22051 | -105.32077 | 11302 ft | 308 kts | 149° |
| 2026-04-22 20:17 | 21.20272 | -105.30913 | 11176 ft | 290 kts | 149° |
| 2026-04-22 20:18 | 21.18583 | -105.29807 | 10845 ft | 282 kts | 149° |
| 2026-04-22 20:18 | 21.16915 | -105.28715 | 10346 ft | 281 kts | 149° |
| 2026-04-22 20:18 | 21.15261 | -105.27634 | 9976 ft | 281 kts | 149° |
| 2026-04-22 20:18 | 21.13580 | -105.26537 | 9672 ft | 285 kts | 149° |
| 2026-04-22 20:19 | 21.11889 | -105.25434 | 9316 ft | 283 kts | 149° |
| 2026-04-22 20:19 | 21.10202 | -105.24334 | 8997 ft | 280 kts | 149° |
| 2026-04-22 20:19 | 21.08598 | -105.23287 | 8857 ft | 267 kts | 149° |
| 2026-04-22 20:19 | 21.07020 | -105.22256 | 8526 ft | 263 kts | 149° |
| 2026-04-22 20:20 | 21.05464 | -105.21238 | 8184 ft | 261 kts | 149° |
| 2026-04-22 20:20 | 21.03914 | -105.20226 | 7849 ft | 260 kts | 149° |
| 2026-04-22 20:20 | 21.02402 | -105.19241 | 7347 ft | 257 kts | 149° |
| 2026-04-22 20:20 | 21.00879 | -105.18248 | 6869 ft | 254 kts | 149° |
| 2026-04-22 20:21 | 20.99363 | -105.17263 | 6510 ft | 254 kts | 149° |
| 2026-04-22 20:21 | 20.97866 | -105.16291 | 6146 ft | 255 kts | 149° |
| 2026-04-22 20:21 | 20.96357 | -105.15310 | 5867 ft | 253 kts | 149° |
| 2026-04-22 20:21 | 20.94844 | -105.14323 | 5794 ft | 253 kts | 149° |
| 2026-04-22 20:22 | 20.93339 | -105.13343 | 5690 ft | 252 kts | 150° |
| 2026-04-22 20:22 | 20.91853 | -105.12337 | 5577 ft | 253 kts | 143° |
| 2026-04-22 20:22 | 20.90477 | -105.11141 | 5273 ft | 253 kts | 141° |
| 2026-04-22 20:22 | 20.89141 | -105.09964 | 4968 ft | 253 kts | 142° |
| 2026-04-22 20:23 | 20.87786 | -105.08771 | 4654 ft | 252 kts | 141° |
| 2026-04-22 20:23 | 20.86367 | -105.07702 | 4366 ft | 246 kts | 159° |
| 2026-04-22 20:23 | 20.84717 | -105.07434 | 4075 ft | 239 kts | 191° |
| 2026-04-22 20:23 | 20.83197 | -105.08066 | 3803 ft | 236 kts | 219° |
| 2026-04-22 20:24 | 20.82051 | -105.09293 | 3540 ft | 231 kts | 228° |
| 2026-04-22 20:24 | 20.80972 | -105.10540 | 3220 ft | 226 kts | 227° |
| 2026-04-22 20:24 | 20.79922 | -105.11744 | 2894 ft | 224 kts | 228° |
| 2026-04-22 20:24 | 20.78858 | -105.12964 | 2682 ft | 220 kts | 229° |
| 2026-04-22 20:25 | 20.77840 | -105.14130 | 2403 ft | 210 kts | 230° |
| 2026-04-22 20:25 | 20.76859 | -105.15258 | 2181 ft | 204 kts | 229° |
| 2026-04-22 20:25 | 20.75888 | -105.16375 | 1964 ft | 202 kts | 230° |
| 2026-04-22 20:25 | 20.74976 | -105.17420 | 1782 ft | 183 kts | 229° |
| 2026-04-22 20:26 | 20.74146 | -105.18361 | 1610 ft | 168 kts | 229° |
| 2026-04-22 20:26 | 20.73377 | -105.19225 | 1338 ft | 152 kts | 229° |
| 2026-04-22 20:26 | 20.72660 | -105.20039 | 975 ft | 150 kts | 229° |
| 2026-04-22 20:26 | 20.71986 | -105.20832 | 792 ft | 143 kts | 232° |
| 2026-04-22 20:27 | 20.71317 | -105.21599 | 673 ft | 140 kts | 229° |
| 2026-04-22 20:27 | 20.70649 | -105.22354 | 532 ft | 140 kts | 230° |
| 2026-04-22 20:27 | 20.69990 | -105.23129 | 361 ft | 140 kts | 227° |
| 2026-04-22 20:27 | 20.69331 | -105.23886 | 149 ft | 141 kts | 226° |
| 2026-04-22 20:28 | 20.68679 | -105.24650 | 40 ft | 134 kts | 227° |
| 2026-04-22 20:28 | 20.68127 | -105.25283 | 30 ft | 88 kts | 227° |
| 2026-04-22 20:28 | 20.67886 | -105.25553 | 31 ft | 23 kts | 216° |
| 2026-04-22 20:28 | 20.67794 | -105.25610 | 29 ft | 13 kts | 206° |
| 2026-04-22 20:29 | 20.67709 | -105.25645 | 29 ft | 12 kts | 199° |
| 2026-04-22 20:29 | 20.67631 | -105.25665 | 29 ft | 11 kts | 179° |
| 2026-04-22 20:29 | 20.67617 | -105.25611 | 29 ft | 8 kts | 59° |
| 2026-04-22 20:29 | 20.67653 | -105.25567 | 29 ft | 8 kts | 46° |
| 2026-04-22 20:30 | 20.67689 | -105.25527 | 29 ft | 7 kts | 46° |
| 2026-04-22 20:30 | 20.67722 | -105.25489 | 29 ft | 7 kts | 48° |
| 2026-04-22 20:30 | 20.67754 | -105.25451 | 29 ft | 7 kts | 48° |
| 2026-04-22 20:30 | 20.67790 | -105.25409 | 29 ft | 8 kts | 47° |
| 2026-04-22 20:31 | 20.67831 | -105.25362 | 29 ft | 9 kts | 46° |
| 2026-04-22 20:31 | 20.67877 | -105.25311 | 29 ft | 10 kts | 46° |
| 2026-04-22 20:31 | 20.67926 | -105.25255 | 29 ft | 11 kts | 47° |
| 2026-04-22 20:31 | 20.67977 | -105.25195 | 29 ft | 11 kts | 48° |
| 2026-04-22 20:32 | 20.68031 | -105.25133 | 29 ft | 12 kts | 46° |
| 2026-04-22 20:32 | 20.68088 | -105.25068 | 29 ft | 12 kts | 47° |
| 2026-04-22 20:32 | 20.68149 | -105.24999 | 29 ft | 13 kts | 47° |
| 2026-04-22 20:32 | 20.68211 | -105.24926 | 29 ft | 14 kts | 47° |
| 2026-04-22 20:33 | 20.68276 | -105.24852 | 29 ft | 12 kts | 47° |
| 2026-04-22 20:33 | 20.68272 | -105.24773 | 29 ft | 12 kts | 128° |
| 2026-04-22 20:33 | 20.68209 | -105.24710 | 29 ft | 13 kts | 138° |
| 2026-04-22 20:33 | 20.68151 | -105.24654 | 29 ft | 10 kts | 137° |
| 2026-04-22 20:34 | 20.68109 | -105.24650 | 29 ft | 6 kts | 219° |
| 2026-04-22 20:34 | 20.68088 | -105.24674 | 29 ft | 2 kts | 226° |
| 2026-04-22 20:34 | 20.68081 | -105.24681 | 29 ft | 0 kts | 227° |